Time;durP1;ratioP1;P1;durP2;ratioP2;P2;SDS_P1;SDS_P2;PMS_P1;PMS_P2;Temp;Humidity;BMP_temperature;BMP_pressure;BME280_temperature;BME280_humidity;BME280_pressure;Samples;Min_cycle;Max_cycle;Signal;HPM_P1;HPM_P2
2021/12/03 00:00:51;;;;;;;25.80;19.40;;;2.00;99.90;;;;;;5013174;28;20070;-81
2021/12/03 00:03:19;;;;;;;27.07;17.63;;;2.00;99.90;;;;;;4996629;28;20035;-91
2021/12/03 00:05:45;;;;;;;26.83;17.27;;;1.90;99.90;;;;;;5027357;28;20068;-80
2021/12/03 00:08:11;;;;;;;23.43;16.27;;;1.80;99.90;;;;;;5011726;28;20039;-89
2021/12/03 00:10:38;;;;;;;27.23;18.87;;;1.70;99.90;;;;;;4969138;28;20047;-92
2021/12/03 00:13:05;;;;;;;29.27;19.43;;;1.70;99.90;;;;;;4969482;28;20091;-92
2021/12/03 00:15:32;;;;;;;24.97;19.40;;;1.70;99.90;;;;;;4988402;28;20049;-91
2021/12/03 00:17:58;;;;;;;29.63;19.80;;;1.60;99.90;;;;;;4970496;28;20041;-92
2021/12/03 00:20:26;;;;;;;24.03;19.33;;;1.60;99.90;;;;;;4972428;28;20051;-93
2021/12/03 00:22:56;;;;;;;30.43;22.37;;;1.60;99.90;;;;;;4969672;28;20047;-90
2021/12/03 00:25:22;;;;;;;30.07;21.07;;;1.70;99.90;;;;;;4986749;28;20034;-87
2021/12/03 00:27:48;;;;;;;35.50;24.07;;;1.60;99.90;;;;;;4988609;28;20035;-87
2021/12/03 00:30:15;;;;;;;32.73;24.03;;;1.60;99.90;;;;;;4999740;28;20050;-89
2021/12/03 00:32:42;;;;;;;33.47;23.63;;;1.60;99.90;;;;;;5006091;28;20118;-88
2021/12/03 00:35:09;;;;;;;31.10;23.17;;;1.70;99.90;;;;;;4995545;28;20035;-89
2021/12/03 00:37:36;;;;;;;34.60;22.80;;;1.60;99.90;;;;;;4985978;28;20050;-87
2021/12/03 00:40:04;;;;;;;32.47;23.80;;;1.60;99.90;;;;;;4968752;28;20023;-88
2021/12/03 00:42:30;;;;;;;35.10;25.53;;;1.60;99.90;;;;;;4997392;28;20030;-86
2021/12/03 00:44:56;;;;;;;36.57;26.23;;;1.60;99.90;;;;;;4999463;28;20532;-87
2021/12/03 00:47:23;;;;;;;33.97;25.13;;;1.60;99.90;;;;;;4984159;28;20039;-86
2021/12/03 00:49:48;;;;;;;36.37;24.77;;;1.60;99.90;;;;;;4994607;28;20041;-82
2021/12/03 00:52:15;;;;;;;36.73;25.80;;;1.60;99.90;;;;;;4987317;28;20332;-87
2021/12/03 00:54:40;;;;;;;36.57;26.70;;;1.60;99.90;;;;;;5000499;28;20034;-87
2021/12/03 00:57:06;;;;;;;34.27;24.67;;;1.70;99.90;;;;;;4979105;28;20090;-85
2021/12/03 00:59:32;;;;;;;39.83;25.93;;;1.70;99.90;;;;;;4966303;28;20063;-87
2021/12/03 01:01:59;;;;;;;37.10;26.40;;;1.70;99.90;;;;;;4964762;28;20035;-86
2021/12/03 01:04:25;;;;;;;36.27;26.43;;;1.70;99.90;;;;;;4964709;28;20062;-87
2021/12/03 01:06:51;;;;;;;29.70;24.67;;;1.80;99.90;;;;;;4974236;28;20027;-83
2021/12/03 01:09:17;;;;;;;31.83;24.50;;;1.70;99.90;;;;;;4985139;28;20090;-86
2021/12/03 01:11:42;;;;;;;33.57;24.43;;;1.60;99.90;;;;;;4991842;28;20095;-88
2021/12/03 01:14:09;;;;;;;35.63;25.53;;;1.60;99.90;;;;;;5006661;28;20026;-86
2021/12/03 01:16:35;;;;;;;36.50;26.93;;;1.50;99.90;;;;;;5002053;28;20031;-89
2021/12/03 01:19:02;;;;;;;38.07;27.23;;;1.50;99.90;;;;;;4988845;28;20037;-88
2021/12/03 01:21:29;;;;;;;41.77;26.47;;;1.40;99.90;;;;;;4989569;28;20026;-88
2021/12/03 01:23:56;;;;;;;41.07;29.10;;;1.40;99.90;;;;;;4987937;28;20114;-87
2021/12/03 01:26:23;;;;;;;45.50;30.47;;;1.40;99.90;;;;;;5019707;28;20043;-87
2021/12/03 01:28:50;;;;;;;43.50;29.80;;;1.50;99.90;;;;;;4988508;28;20019;-87
2021/12/03 01:31:17;;;;;;;48.40;30.90;;;1.50;99.90;;;;;;4975735;28;20031;-86
2021/12/03 01:33:45;;;;;;;43.20;28.87;;;1.50;99.90;;;;;;4975813;28;20027;-87
2021/12/03 01:36:12;;;;;;;39.00;28.13;;;1.50;99.90;;;;;;4983092;28;20031;-88
2021/12/03 01:38:38;;;;;;;43.67;30.03;;;1.50;99.90;;;;;;4970959;28;20023;-87
2021/12/03 01:41:04;;;;;;;46.60;29.63;;;1.50;99.90;;;;;;4982159;28;20130;-85
2021/12/03 01:43:30;;;;;;;47.83;31.00;;;1.70;99.90;;;;;;5018557;28;20086;-86
2021/12/03 01:46:03;;;;;;;50.70;31.50;;;1.80;99.90;;;;;;5001690;28;20038;-88
2021/12/03 01:48:29;;;;;;;44.58;28.08;;;1.90;99.90;;;;;;4990048;28;20018;-86
2021/12/03 01:50:56;;;;;;;45.53;28.87;;;1.90;99.90;;;;;;4969436;28;20435;-83
2021/12/03 01:53:26;;;;;;;45.43;28.30;;;1.90;99.90;;;;;;4970989;28;20037;-87
2021/12/03 01:55:56;;;;;;;45.87;29.87;;;2.00;99.90;;;;;;4987216;28;20031;-81
2021/12/03 01:58:22;;;;;;;46.93;29.43;;;2.10;99.90;;;;;;4985596;28;20077;-85
2021/12/03 02:00:53;;;;;;;45.73;28.60;;;2.10;99.90;;;;;;4985669;28;20387;-85
2021/12/03 02:03:22;;;;;;;54.50;31.40;;;2.10;99.90;;;;;;4986024;28;20019;-86
2021/12/03 02:05:49;;;;;;;51.53;31.07;;;2.20;99.90;;;;;;4989218;28;20022;-84
2021/12/03 02:08:15;;;;;;;53.93;31.90;;;2.20;99.90;;;;;;4994059;28;20038;-86
2021/12/03 02:10:42;;;;;;;54.03;30.93;;;2.20;99.90;;;;;;4991788;28;20027;-88
2021/12/03 02:13:08;;;;;;;52.83;31.07;;;2.30;99.90;;;;;;5016614;28;20027;-87
2021/12/03 02:15:34;;;;;;;48.90;30.33;;;2.40;99.90;;;;;;4987318;28;20038;-85
2021/12/03 02:18:00;;;;;;;52.30;30.07;;;2.40;99.90;;;;;;4985512;28;20416;-85
2021/12/03 02:20:28;;;;;;;53.20;31.17;;;2.50;99.90;;;;;;4973031;28;20050;-87
2021/12/03 02:22:54;;;;;;;58.13;32.03;;;2.50;99.90;;;;;;4973646;28;20094;-86
2021/12/03 02:25:22;;;;;;;52.00;30.03;;;2.60;99.90;;;;;;4997748;28;20011;-86
2021/12/03 02:27:51;;;;;;;50.47;29.33;;;2.50;99.90;;;;;;4985988;28;20042;-86
2021/12/03 02:30:18;;;;;;;55.10;30.20;;;2.60;99.90;;;;;;5011530;28;20025;-85
2021/12/03 02:32:45;;;;;;;51.33;29.07;;;2.50;99.90;;;;;;5009267;28;20106;-87
2021/12/03 02:35:12;;;;;;;54.93;30.50;;;2.50;99.90;;;;;;5000726;28;20047;-86
2021/12/03 02:37:38;;;;;;;52.93;29.30;;;2.60;99.90;;;;;;4983786;28;20089;-87
2021/12/03 02:40:06;;;;;;;50.37;28.60;;;2.60;99.90;;;;;;4985145;28;20031;-86
2021/12/03 02:42:32;;;;;;;55.03;29.33;;;2.50;99.90;;;;;;4986330;28;20027;-87
2021/12/03 02:44:58;;;;;;;59.97;29.13;;;2.50;99.90;;;;;;4971759;28;20019;-81
2021/12/03 02:47:24;;;;;;;60.33;29.47;;;2.40;99.90;;;;;;4979230;28;20034;-87
2021/12/03 02:49:50;;;;;;;52.50;27.70;;;2.50;99.90;;;;;;4980055;28;20039;-86
2021/12/03 02:52:16;;;;;;;54.50;28.90;;;2.50;99.90;;;;;;5006001;28;20042;-87
2021/12/03 02:54:42;;;;;;;56.17;28.63;;;2.60;99.90;;;;;;4985465;28;20038;-86
2021/12/03 02:57:07;;;;;;;58.13;28.83;;;2.60;99.90;;;;;;4983883;28;20045;-86
2021/12/03 02:59:34;;;;;;;48.83;26.53;;;2.60;99.90;;;;;;4984977;28;20054;-86
2021/12/03 03:02:01;;;;;;;52.23;27.73;;;2.60;99.90;;;;;;4984500;28;20023;-80
2021/12/03 03:04:26;;;;;;;51.17;27.23;;;2.60;99.90;;;;;;4985104;28;20026;-86
2021/12/03 03:06:53;;;;;;;53.70;28.23;;;2.70;99.90;;;;;;4967349;28;20031;-86
2021/12/03 03:09:19;;;;;;;48.33;26.27;;;2.70;99.90;;;;;;4983089;28;20194;-85
2021/12/03 03:11:46;;;;;;;45.57;27.63;;;2.70;99.90;;;;;;5004450;28;20034;-87
2021/12/03 03:14:12;;;;;;;53.43;27.47;;;2.80;99.90;;;;;;5004582;28;20054;-86
2021/12/03 03:16:37;;;;;;;49.20;27.13;;;2.80;99.90;;;;;;5001799;28;20039;-85
2021/12/03 03:19:13;;;;;;;55.90;28.27;;;2.80;99.90;;;;;;4972357;28;20022;-84
2021/12/03 03:21:40;;;;;;;49.67;27.23;;;2.80;99.90;;;;;;5000814;28;20030;-85
2021/12/03 03:24:08;;;;;;;53.93;27.77;;;2.90;99.90;;;;;;4963905;28;20101;-84
2021/12/03 03:26:38;;;;;;;54.07;28.40;;;2.90;99.90;;;;;;4964087;28;20041;-83
2021/12/03 03:29:14;;;;;;;47.37;27.37;;;2.80;99.90;;;;;;4979872;28;20042;-84
2021/12/03 03:31:40;;;;;;;48.10;26.93;;;2.90;99.90;;;;;;4984250;28;20061;-86
2021/12/03 03:34:08;;;;;;;54.83;27.10;;;2.90;99.90;;;;;;4997165;28;20093;-84
2021/12/03 03:36:36;;;;;;;44.27;27.93;;;3.00;99.90;;;;;;5014866;28;20031;-86
2021/12/03 03:39:05;;;;;;;44.87;27.13;;;3.00;99.90;;;;;;4974749;28;20026;-85
2021/12/03 03:41:32;;;;;;;37.20;24.77;;;3.10;99.90;;;;;;4980216;28;20023;-85
2021/12/03 03:43:57;;;;;;;43.17;24.40;;;3.10;99.90;;;;;;4980133;28;20103;-86
2021/12/03 03:46:24;;;;;;;36.43;23.17;;;3.10;99.90;;;;;;4979929;28;20036;-85
2021/12/03 03:48:49;;;;;;;35.20;23.57;;;3.10;99.90;;;;;;4983390;28;20034;-86
2021/12/03 03:51:16;;;;;;;39.20;22.47;;;3.10;99.90;;;;;;4978106;28;20042;-87
2021/12/03 03:53:42;;;;;;;36.90;23.53;;;3.00;99.90;;;;;;4980586;28;20031;-85
2021/12/03 03:56:08;;;;;;;37.53;24.23;;;3.00;99.90;;;;;;4981117;28;20086;-83
2021/12/03 03:58:37;;;;;;;37.47;24.33;;;3.10;99.90;;;;;;4997588;28;20070;-86
2021/12/03 04:01:04;;;;;;;37.47;24.00;;;3.20;99.90;;;;;;4997994;28;20037;-86
2021/12/03 04:03:30;;;;;;;44.03;25.40;;;3.20;99.90;;;;;;4983166;28;20412;-87
2021/12/03 04:05:56;;;;;;;39.60;26.23;;;3.20;99.90;;;;;;4982612;28;20069;-86
2021/12/03 04:08:22;;;;;;;45.13;26.90;;;3.20;99.90;;;;;;4998557;28;20035;-87
2021/12/03 04:10:49;;;;;;;50.50;27.17;;;3.20;99.90;;;;;;4986552;28;20029;-88
2021/12/03 04:13:15;;;;;;;56.83;29.73;;;3.30;99.90;;;;;;5002720;28;20514;-86
2021/12/03 04:15:42;;;;;;;56.83;29.07;;;3.30;99.90;;;;;;4986672;28;20030;-86
2021/12/03 04:18:08;;;;;;;51.60;28.27;;;3.30;99.90;;;;;;5009594;28;20097;-82
2021/12/03 04:20:35;;;;;;;49.30;28.43;;;3.40;99.90;;;;;;5006920;28;20066;-85
2021/12/03 04:23:01;;;;;;;51.33;29.03;;;3.40;99.90;;;;;;5020021;28;20085;-87
2021/12/03 04:25:27;;;;;;;52.50;28.10;;;3.50;99.90;;;;;;4982455;28;20027;-87
2021/12/03 04:27:54;;;;;;;42.40;26.30;;;3.40;99.90;;;;;;5020971;28;20035;-88
2021/12/03 04:30:24;;;;;;;54.93;28.80;;;3.40;99.90;;;;;;4986949;28;20464;-88
2021/12/03 04:32:52;;;;;;;55.80;29.43;;;3.40;99.90;;;;;;4984343;28;20057;-89
2021/12/03 04:35:18;;;;;;;50.30;27.90;;;3.40;99.90;;;;;;4984004;28;20027;-86
2021/12/03 04:37:44;;;;;;;51.33;27.63;;;3.40;99.90;;;;;;4980612;28;20066;-88
2021/12/03 04:40:12;;;;;;;47.87;26.47;;;3.50;99.90;;;;;;4998128;28;20032;-81
2021/12/03 04:42:38;;;;;;;50.67;28.03;;;3.50;99.90;;;;;;4990342;28;20089;-86
2021/12/03 04:45:08;;;;;;;58.00;28.83;;;3.50;99.90;;;;;;5004745;28;20177;-90
2021/12/03 04:47:34;;;;;;;49.53;27.70;;;3.50;99.90;;;;;;5010798;28;20035;-91
2021/12/03 04:50:01;;;;;;;48.37;27.70;;;3.60;99.90;;;;;;4994037;28;20050;-88
2021/12/03 04:52:27;;;;;;;43.23;25.37;;;3.60;99.90;;;;;;4985897;28;20098;-91
2021/12/03 04:54:53;;;;;;;49.90;27.83;;;3.70;99.90;;;;;;4991759;28;20038;-92
2021/12/03 04:57:19;;;;;;;52.83;28.03;;;3.70;99.90;;;;;;4971639;28;20038;-90
2021/12/03 04:59:45;;;;;;;51.57;26.97;;;3.70;99.90;;;;;;4994577;28;20045;-89
2021/12/03 05:02:11;;;;;;;44.47;26.80;;;3.80;99.90;;;;;;5005639;28;20034;-84
2021/12/03 05:04:38;;;;;;;44.57;26.50;;;3.80;99.90;;;;;;4971908;28;20129;-91
2021/12/03 05:09:35;;;;;;;54.83;28.63;;;3.90;99.90;;;;;;4998609;28;20530;-89
2021/12/03 05:12:01;;;;;;;57.57;27.87;;;3.90;99.90;;;;;;5006100;28;20038;-89
2021/12/03 05:14:27;;;;;;;49.43;27.70;;;4.00;99.90;;;;;;4988587;28;20027;-90
2021/12/03 05:16:53;;;;;;;49.07;28.07;;;4.00;99.90;;;;;;4988016;28;20034;-91
2021/12/03 05:19:19;;;;;;;52.27;28.70;;;4.00;99.90;;;;;;5003486;28;20031;-90
2021/12/03 05:21:45;;;;;;;52.33;27.70;;;4.10;99.90;;;;;;4991103;28;20046;-91
2021/12/03 05:24:12;;;;;;;50.73;27.73;;;4.10;99.90;;;;;;4992450;28;20034;-92
2021/12/03 05:26:38;;;;;;;50.93;26.90;;;4.10;99.90;;;;;;4993491;28;20031;-89
2021/12/03 05:29:06;;;;;;;51.47;27.57;;;4.10;99.90;;;;;;5007862;28;20114;-90
2021/12/03 05:31:33;;;;;;;53.57;27.67;;;4.10;99.90;;;;;;5007876;28;20118;-89
2021/12/03 05:33:59;;;;;;;54.27;27.93;;;4.20;99.90;;;;;;5005799;28;20085;-86
2021/12/03 05:36:25;;;;;;;49.33;25.20;;;4.10;99.90;;;;;;4987056;28;20034;-88
2021/12/03 05:38:51;;;;;;;47.40;26.10;;;4.00;99.90;;;;;;4988476;28;20023;-90
2021/12/03 05:41:17;;;;;;;46.50;24.90;;;4.00;99.90;;;;;;5003731;28;20050;-83
2021/12/03 05:43:43;;;;;;;43.70;25.03;;;3.90;99.90;;;;;;5018016;28;20058;-89
2021/12/03 05:46:08;;;;;;;45.43;25.93;;;3.90;99.90;;;;;;5002572;28;20054;-89
2021/12/03 05:48:34;;;;;;;56.77;26.30;;;4.00;99.90;;;;;;5019139;28;20054;-91
2021/12/03 05:51:01;;;;;;;51.33;25.00;;;4.00;99.90;;;;;;5003709;28;20038;-88
2021/12/03 05:53:28;;;;;;;46.60;24.93;;;4.00;99.90;;;;;;4985821;28;20122;-90
2021/12/03 05:55:54;;;;;;;49.17;24.80;;;4.00;99.90;;;;;;5019342;28;20127;-90
2021/12/03 05:58:20;;;;;;;47.33;25.03;;;4.00;99.90;;;;;;5019025;28;20046;-81
2021/12/03 06:00:48;;;;;;;48.50;24.47;;;4.00;99.90;;;;;;4987930;28;20038;-91
2021/12/03 06:03:14;;;;;;;48.23;24.10;;;4.00;99.90;;;;;;4980127;28;20027;-89
2021/12/03 06:05:41;;;;;;;49.37;24.17;;;3.90;99.90;;;;;;5028558;28;20203;-86
2021/12/03 06:08:08;;;;;;;48.23;24.07;;;3.90;99.90;;;;;;5014212;28;20071;-85
2021/12/03 06:10:34;;;;;;;40.30;22.43;;;3.90;99.90;;;;;;4989796;28;20027;-89
2021/12/03 06:13:00;;;;;;;45.20;22.30;;;3.80;99.90;;;;;;4973443;28;20050;-89
2021/12/03 06:15:26;;;;;;;43.23;20.60;;;3.90;99.90;;;;;;4995338;28;20027;-88
2021/12/03 06:17:52;;;;;;;41.47;22.03;;;3.80;99.90;;;;;;4992655;28;20054;-91
2021/12/03 06:20:19;;;;;;;42.43;20.17;;;3.80;99.90;;;;;;4989312;28;20049;-89
2021/12/03 06:22:46;;;;;;;39.23;20.57;;;3.70;99.90;;;;;;5021176;28;20038;-90
2021/12/03 06:25:13;;;;;;;41.97;19.70;;;3.70;99.90;;;;;;5025126;28;20034;-88
2021/12/03 06:27:39;;;;;;;36.00;18.73;;;3.70;99.90;;;;;;4990484;28;20035;-89
2021/12/03 06:30:08;;;;;;;43.70;19.10;;;3.70;99.90;;;;;;4977545;28;20019;-89
2021/12/03 06:32:35;;;;;;;38.23;18.33;;;3.70;99.90;;;;;;4989348;28;20037;-88
2021/12/03 06:35:01;;;;;;;41.73;19.27;;;3.70;99.90;;;;;;5000076;28;20007;-87
2021/12/03 06:37:27;;;;;;;36.70;18.43;;;3.70;99.90;;;;;;5014743;28;20034;-86
2021/12/03 06:39:53;;;;;;;38.87;18.90;;;3.70;99.90;;;;;;4978579;28;20047;-88
2021/12/03 06:42:18;;;;;;;43.43;18.80;;;3.70;99.90;;;;;;4975893;28;20126;-88
2021/12/03 06:44:44;;;;;;;36.60;17.40;;;3.70;99.90;;;;;;4976728;28;20034;-89
2021/12/03 06:47:10;;;;;;;43.97;19.17;;;3.60;99.90;;;;;;5021540;28;20035;-88
2021/12/03 06:49:37;;;;;;;33.27;17.07;;;3.60;99.90;;;;;;4989083;28;20030;-88
2021/12/03 06:52:07;;;;;;;33.70;16.60;;;3.70;99.90;;;;;;5005455;28;20082;-88
2021/12/03 06:54:35;;;;;;;35.87;15.57;;;3.70;99.90;;;;;;4992201;28;20038;-88
2021/12/03 06:57:03;;;;;;;37.53;14.93;;;3.70;99.90;;;;;;5013671;28;20023;-86
2021/12/03 06:59:29;;;;;;;30.23;14.27;;;3.70;99.90;;;;;;4997119;28;20057;-82
2021/12/03 07:01:55;;;;;;;29.70;13.83;;;3.60;99.90;;;;;;4997959;28;20043;-86
2021/12/03 07:04:22;;;;;;;30.93;14.03;;;3.60;99.90;;;;;;5021776;28;20046;-87
2021/12/03 07:06:48;;;;;;;32.67;13.33;;;3.60;99.90;;;;;;4997759;28;20039;-85
2021/12/03 07:09:14;;;;;;;31.37;12.50;;;3.60;99.90;;;;;;4975482;28;20472;-83
2021/12/03 07:11:41;;;;;;;32.77;13.37;;;3.60;99.90;;;;;;4958884;28;20042;-84
2021/12/03 07:14:07;;;;;;;31.60;12.53;;;3.60;99.90;;;;;;4976267;28;20036;-86
2021/12/03 07:16:33;;;;;;;25.37;12.20;;;3.60;99.90;;;;;;4962562;28;20038;-85
2021/12/03 07:18:58;;;;;;;34.07;11.60;;;3.60;99.90;;;;;;5014626;28;20042;-85
2021/12/03 07:21:24;;;;;;;32.03;10.40;;;3.60;99.90;;;;;;4982065;28;20038;-87
2021/12/03 07:23:51;;;;;;;28.17;11.37;;;3.70;99.90;;;;;;4977278;28;20159;-86
2021/12/03 07:26:18;;;;;;;27.90;11.63;;;3.70;99.90;;;;;;4962349;28;20041;-87
2021/12/03 07:28:44;;;;;;;28.83;11.07;;;3.80;99.90;;;;;;4956504;28;20035;-88
2021/12/03 07:31:11;;;;;;;28.80;10.93;;;3.80;99.90;;;;;;4975159;28;20035;-87
2021/12/03 07:33:37;;;;;;;29.67;10.43;;;3.70;99.90;;;;;;4983650;28;20038;-87
2021/12/03 07:36:05;;;;;;;27.97;11.27;;;3.80;99.90;;;;;;4980743;28;20027;-87
2021/12/03 07:38:31;;;;;;;25.00;10.77;;;3.80;99.90;;;;;;4994263;28;20125;-84
2021/12/03 07:40:57;;;;;;;30.77;9.80;;;3.80;99.90;;;;;;4975719;28;20058;-84
2021/12/03 07:43:22;;;;;;;37.17;10.13;;;3.80;99.90;;;;;;4977772;28;20038;-86
2021/12/03 07:45:49;;;;;;;27.70;10.43;;;3.80;99.90;;;;;;4959084;28;20034;-86
2021/12/03 07:48:15;;;;;;;31.17;9.37;;;3.90;99.90;;;;;;4978023;28;20058;-86
2021/12/03 07:50:41;;;;;;;25.60;9.10;;;3.90;99.90;;;;;;4978505;28;20029;-87
2021/12/03 07:53:09;;;;;;;31.63;9.70;;;3.90;99.90;;;;;;4961381;28;20406;-86
2021/12/03 07:55:35;;;;;;;28.67;9.53;;;3.90;99.90;;;;;;4988787;28;20027;-85
2021/12/03 07:58:03;;;;;;;25.37;8.87;;;3.90;99.90;;;;;;5026005;28;20059;-81
2021/12/03 08:00:29;;;;;;;29.07;8.70;;;3.90;99.90;;;;;;5029339;28;20038;-83
2021/12/03 08:02:55;;;;;;;27.53;7.90;;;3.90;99.90;;;;;;5007493;28;20026;-85
2021/12/03 08:05:21;;;;;;;26.77;8.07;;;3.90;99.90;;;;;;4995988;28;20035;-84
2021/12/03 08:07:48;;;;;;;27.40;8.07;;;3.90;99.90;;;;;;4990329;28;20027;-85
2021/12/03 08:10:15;;;;;;;27.97;8.57;;;3.90;99.90;;;;;;4990835;28;20043;-84
2021/12/03 08:12:42;;;;;;;25.43;9.27;;;3.90;99.90;;;;;;4982026;28;20050;-84
2021/12/03 08:15:09;;;;;;;26.70;9.30;;;3.90;99.90;;;;;;4961805;28;20107;-84
2021/12/03 08:17:35;;;;;;;29.70;7.70;;;3.90;99.90;;;;;;4992786;28;20041;-81
2021/12/03 08:20:01;;;;;;;28.07;8.17;;;4.00;99.90;;;;;;4996679;28;20428;-84
2021/12/03 08:22:27;;;;;;;28.20;8.20;;;3.90;99.90;;;;;;4977510;28;20031;-85
2021/12/03 08:24:54;;;;;;;22.80;7.80;;;3.90;99.90;;;;;;4999068;28;20031;-84
2021/12/03 08:27:20;;;;;;;27.93;9.20;;;3.90;99.90;;;;;;4975648;28;20034;-84
2021/12/03 08:29:46;;;;;;;24.47;8.93;;;4.00;99.90;;;;;;4978218;28;20037;-84
2021/12/03 08:32:12;;;;;;;24.87;7.67;;;4.00;99.90;;;;;;4961492;28;20122;-84
2021/12/03 08:34:38;;;;;;;27.07;11.10;;;4.00;99.90;;;;;;4960146;28;20077;-83
2021/12/03 08:37:05;;;;;;;29.77;9.10;;;4.10;99.90;;;;;;4977502;28;20525;-84
2021/12/03 08:39:31;;;;;;;34.17;7.87;;;4.10;99.90;;;;;;4975485;28;20023;-84
2021/12/03 08:41:57;;;;;;;25.77;9.93;;;4.20;99.90;;;;;;4975718;28;20486;-84
2021/12/03 08:44:24;;;;;;;32.87;14.00;;;4.20;99.90;;;;;;4975971;28;20121;-84
2021/12/03 08:46:59;;;;;;;25.37;9.17;;;4.20;99.90;;;;;;4976405;28;20034;-85
2021/12/03 08:49:33;;;;;;;31.00;10.10;;;4.20;99.90;;;;;;4983172;28;20522;-84
2021/12/03 08:57:15;;;;;;;25.70;10.90;;;4.20;99.90;;;;;;4977951;28;20093;-85
2021/12/03 08:59:41;;;;;;;26.87;11.30;;;4.20;99.90;;;;;;4975953;28;20416;-85
2021/12/03 09:02:07;;;;;;;30.20;11.80;;;4.30;99.90;;;;;;4975852;28;20062;-84
2021/12/03 09:04:33;;;;;;;30.93;11.93;;;4.40;99.90;;;;;;5007571;28;20170;-85
2021/12/03 09:07:00;;;;;;;27.80;9.77;;;4.40;99.90;;;;;;4976721;28;20100;-84
2021/12/03 09:09:26;;;;;;;24.37;9.70;;;4.50;99.90;;;;;;4968001;28;20033;-82
2021/12/03 09:11:54;;;;;;;29.47;8.77;;;4.50;99.80;;;;;;4989859;28;20058;-84
2021/12/03 09:14:42;;;;;;;24.07;11.17;;;4.50;99.30;;;;;;4986718;28;20534;-82
2021/12/03 09:25:03;;;;;;;30.00;10.67;;;4.80;99.20;;;;;;4976765;28;20097;-82
2021/12/03 09:27:29;;;;;;;28.87;10.27;;;4.90;99.20;;;;;;5007228;28;20034;-82
2021/12/03 09:29:55;;;;;;;25.70;10.40;;;4.90;98.80;;;;;;4958597;28;20049;-83
2021/12/03 09:32:25;;;;;;;22.93;8.73;;;5.10;99.00;;;;;;4976490;28;20035;-83
2021/12/03 09:34:51;;;;;;;23.30;8.37;;;5.10;98.50;;;;;;4958579;28;20039;-82
2021/12/03 09:37:17;;;;;;;24.53;7.23;;;5.10;98.20;;;;;;4971826;28;20062;-82
2021/12/03 09:39:45;;;;;;;20.00;6.40;;;5.20;98.20;;;;;;4955801;28;20383;-81
2021/12/03 09:42:12;;;;;;;25.63;7.13;;;5.20;97.80;;;;;;4965254;28;20023;-83
2021/12/03 09:44:40;;;;;;;17.27;5.47;;;5.30;98.00;;;;;;4975036;28;20173;-83
2021/12/03 09:47:06;;;;;;;18.43;5.87;;;5.40;97.50;;;;;;4975092;28;20043;-81
2021/12/03 09:49:37;;;;;;;19.27;6.30;;;5.40;97.50;;;;;;4974743;28;20038;-81
2021/12/03 09:54:43;;;;;;;21.03;5.77;;;5.50;97.00;;;;;;4974510;28;20043;-81
2021/12/03 09:57:16;;;;;;;18.83;5.00;;;5.50;97.00;;;;;;4981777;28;20078;-82
2021/12/03 10:02:40;;;;;;;22.77;5.17;;;5.60;96.00;;;;;;4966148;28;20051;-82
2021/12/03 10:09:27;;;;;;;23.67;5.40;;;5.30;95.70;;;;;;4965364;28;21022;-82
2021/12/03 10:13:33;;;;;;;16.07;4.93;;;5.30;95.90;;;;;;4971874;28;20479;-81
2021/12/03 10:18:43;;;;;;;19.60;5.30;;;5.20;96.30;;;;;;4972911;28;20090;-82
2021/12/03 10:21:39;;;;;;;19.40;5.73;;;5.30;96.00;;;;;;4970736;28;20073;-80
2021/12/03 10:57:18;;;;;;;19.17;6.83;;;5.70;95.50;;;;;;4969549;28;20039;-81
2021/12/03 11:00:22;;;;;;;19.50;6.72;;;5.70;95.60;;;;;;4956921;28;20046;-82
2021/12/03 11:11:10;;;;;;;25.50;7.93;;;5.80;95.30;;;;;;4967478;28;20042;-82
2021/12/03 12:08:38;;;;;;;20.98;8.45;;;6.30;93.30;;;;;;4977196;28;20311;-79
2021/12/03 12:19:57;;;;;;;14.77;7.87;;;6.60;93.50;;;;;;4970837;28;20046;-80
2021/12/03 12:36:55;;;;;;;13.07;6.80;;;6.50;92.50;;;;;;4971430;28;20034;-81
2021/12/03 12:56:27;;;;;;;12.73;6.23;;;6.50;92.20;;;;;;4971931;28;20106;-81
2021/12/03 12:56:56;;;;;;;12.43;5.23;;;6.50;92.80;;;;;;4971169;28;20491;-81
2021/12/03 13:02:05;;;;;;;9.87;4.73;;;6.40;92.50;;;;;;4972339;28;20035;-82
2021/12/03 13:12:51;;;;;;;9.57;4.33;;;6.50;91.90;;;;;;4974456;28;20471;-80
2021/12/03 13:15:45;;;;;;;10.80;4.83;;;6.50;92.30;;;;;;4974421;28;20090;-80
2021/12/03 14:56:14;;;;;;;9.03;3.37;;;5.80;94.60;;;;;;4950259;28;20043;-81
2021/12/03 15:03:55;;;;;;;8.80;2.87;;;5.70;95.50;;;;;;4973409;28;20093;-81
2021/12/03 15:06:38;;;;;;;9.83;3.47;;;5.70;95.60;;;;;;4962956;28;20042;-81
2021/12/03 15:32:12;;;;;;;7.47;3.60;;;5.50;97.40;;;;;;5002007;28;20043;-79
2021/12/03 16:08:48;;;;;;;4.63;2.20;;;5.50;98.10;;;;;;4972019;28;20113;-79
2021/12/03 16:11:23;;;;;;;3.83;1.80;;;5.60;97.80;;;;;;4960214;28;20099;-80
2021/12/03 16:14:04;;;;;;;5.30;2.30;;;5.60;97.70;;;;;;5001479;28;20031;-79
2021/12/03 16:51:49;;;;;;;5.50;2.37;;;5.40;99.10;;;;;;4968790;28;20101;-80
2021/12/03 16:54:21;;;;;;;4.53;2.60;;;5.40;99.10;;;;;;4973759;28;20114;-81
2021/12/03 16:56:50;;;;;;;2.57;1.77;;;5.30;99.20;;;;;;4971097;28;20031;-80
2021/12/03 16:59:16;;;;;;;5.07;2.10;;;5.30;99.50;;;;;;4976894;28;20043;-80
2021/12/03 17:02:06;;;;;;;4.73;2.07;;;5.30;99.60;;;;;;4972833;28;20122;-80
2021/12/03 17:08:22;;;;;;;6.13;2.10;;;5.40;99.80;;;;;;4973750;28;20035;-79
2021/12/03 17:10:30;;;;;;;6.90;2.10;;;5.40;99.80;;;;;;4975139;28;20426;-81
2021/12/03 17:13:15;;;;;;;7.20;2.20;;;5.40;99.80;;;;;;4976645;28;20035;-81
2021/12/03 17:16:08;;;;;;;4.43;2.37;;;5.40;99.90;;;;;;4997229;28;20113;-81
2021/12/03 17:22:23;;;;;;;4.73;2.07;;;5.40;99.90;;;;;;4975133;28;20472;-81
2021/12/03 17:48:41;;;;;;;2.83;1.60;;;5.40;99.90;;;;;;4968314;28;20054;-80
2021/12/03 17:56:14;;;;;;;3.83;1.87;;;5.20;99.90;;;;;;4981112;28;20066;-81
2021/12/03 18:01:17;;;;;;;3.80;1.80;;;5.30;99.90;;;;;;4973345;28;20048;-81
2021/12/03 18:03:50;;;;;;;2.50;1.47;;;5.30;99.90;;;;;;4974772;28;20030;-80
2021/12/03 18:51:25;;;;;;;2.00;1.50;;;5.30;99.90;;;;;;4967214;28;20049;-81
2021/12/03 18:56:20;;;;;;;1.27;0.90;;;5.30;99.90;;;;;;5000573;28;20047;-79
2021/12/03 18:58:54;;;;;;;1.50;1.10;;;5.30;99.90;;;;;;4969393;28;20150;-80
2021/12/03 19:01:24;;;;;;;1.30;1.00;;;5.30;99.90;;;;;;4967690;28;20053;-81
2021/12/03 19:04:16;;;;;;;1.10;0.80;;;5.30;99.80;;;;;;4966701;28;20049;-81
2021/12/03 19:06:51;;;;;;;1.77;1.03;;;5.30;99.80;;;;;;4967119;28;20039;-81
2021/12/03 19:09:32;;;;;;;2.73;0.90;;;5.40;99.80;;;;;;4971431;28;20027;-80
2021/12/03 19:12:06;;;;;;;1.63;0.80;;;5.40;99.60;;;;;;4969915;28;20216;-80
2021/12/03 19:14:37;;;;;;;2.07;1.03;;;5.40;99.70;;;;;;4949459;28;20596;-79
2021/12/03 19:17:08;;;;;;;2.27;0.90;;;5.50;99.70;;;;;;4969428;28;20045;-82
2021/12/03 19:19:40;;;;;;;2.47;0.90;;;5.50;99.80;;;;;;5004886;28;20046;-82
2021/12/03 19:22:06;;;;;;;2.90;1.23;;;5.50;99.60;;;;;;4975036;28;20030;-83
2021/12/03 19:24:31;;;;;;;1.50;0.90;;;5.60;99.50;;;;;;4979526;28;20031;-82
2021/12/03 19:26:57;;;;;;;1.47;1.00;;;5.60;99.50;;;;;;5011700;28;20047;-82
2021/12/03 19:29:24;;;;;;;3.47;1.10;;;5.60;99.50;;;;;;4956611;28;20035;-81
2021/12/03 19:31:51;;;;;;;3.83;0.93;;;5.60;99.40;;;;;;4956091;28;20022;-82
2021/12/03 19:34:20;;;;;;;2.40;1.10;;;5.60;99.30;;;;;;4997084;28;20031;-80
2021/12/03 19:36:46;;;;;;;1.70;1.37;;;5.50;99.40;;;;;;4974769;28;20419;-82
2021/12/03 19:39:16;;;;;;;4.07;1.30;;;5.50;99.50;;;;;;4984286;28;20026;-83
2021/12/03 19:44:17;;;;;;;2.38;0.93;;;5.50;99.50;;;;;;4982201;28;20042;-82
2021/12/03 19:46:46;;;;;;;1.40;0.90;;;5.50;99.50;;;;;;4977071;28;20122;-81
2021/12/03 19:51:59;;;;;;;3.30;2.25;;;5.50;99.50;;;;;;4975398;28;20030;-83
2021/12/03 19:54:25;;;;;;;3.43;1.23;;;5.50;99.50;;;;;;4993719;28;20027;-83
2021/12/03 19:56:51;;;;;;;4.37;1.70;;;5.50;99.50;;;;;;4969925;28;20514;-82
2021/12/03 19:59:18;;;;;;;1.80;1.20;;;5.50;99.50;;;;;;4978588;28;20049;-82
2021/12/03 20:01:45;;;;;;;1.63;1.50;;;5.50;99.60;;;;;;4961197;28;20487;-80
2021/12/03 20:04:13;;;;;;;4.10;1.70;;;5.50;99.60;;;;;;4986840;28;20037;-83
2021/12/03 20:06:44;;;;;;;3.20;1.40;;;5.50;99.70;;;;;;4972469;28;20060;-81
2021/12/03 20:09:22;;;;;;;2.60;1.70;;;5.50;99.60;;;;;;4994808;28;20037;-85
2021/12/03 20:11:51;;;;;;;2.70;1.63;;;5.50;99.60;;;;;;4978321;28;20035;-80
2021/12/03 20:14:19;;;;;;;3.47;1.80;;;5.40;99.50;;;;;;4954265;28;20042;-82
2021/12/03 20:21:51;;;;;;;2.27;1.70;;;5.40;99.60;;;;;;4981140;28;20070;-84
2021/12/03 20:35:59;;;;;;;2.60;1.67;;;5.50;99.70;;;;;;4980318;28;20282;-82
2021/12/03 20:37:58;;;;;;;3.80;2.40;;;5.50;99.50;;;;;;4969335;29;20116;-82
2021/12/03 20:40:26;;;;;;;9.03;6.40;;;5.50;99.50;;;;;;4984375;28;20063;-82
2021/12/03 21:09:41;;;;;;;5.13;2.73;;;5.50;99.00;;;;;;4964772;28;20046;-82
2021/12/03 21:12:17;;;;;;;2.63;1.88;;;5.50;99.10;;;;;;4962135;28;20819;-80